Time;durP1;ratioP1;P1;durP2;ratioP2;P2;SDS_P1;SDS_P2;PMS_P1;PMS_P2;Temp;Humidity;BMP_temperature;BMP_pressure;BME280_temperature;BME280_humidity;BME280_pressure;Samples;Min_cycle;Max_cycle;Signal;HPM_P1;HPM_P2
2023/10/07 00:11:45;;;;;;;5.50;3.35;;;16.90;99.90;;;;;;4594120;19;20473;-69
2023/10/07 00:13:23;;;;;;;9.55;4.90;;;16.90;99.90;;;;;;4590733;19;20014;-69
2023/10/07 00:14:57;;;;;;;5.50;3.50;;;16.90;99.90;;;;;;4592128;19;20457;-69
2023/10/07 00:16:31;;;;;;;5.93;3.67;;;16.90;99.90;;;;;;4593005;19;20002;-69
2023/10/07 00:18:18;;;;;;;6.55;3.97;;;16.90;99.90;;;;;;4592110;19;20014;-69
2023/10/07 00:19:52;;;;;;;6.65;3.92;;;16.90;99.90;;;;;;4592074;19;20091;-69
2023/10/07 00:21:53;;;;;;;6.03;3.90;;;16.90;99.90;;;;;;4592014;19;20070;-68
2023/10/07 00:23:27;;;;;;;6.45;3.65;;;16.90;99.90;;;;;;4592711;19;20026;-68
2023/10/07 00:25:02;;;;;;;6.75;3.85;;;16.90;99.90;;;;;;4592950;19;20510;-69
2023/10/07 00:26:36;;;;;;;5.47;3.72;;;16.90;99.90;;;;;;4592651;19;19999;-68
2023/10/07 00:28:19;;;;;;;6.45;3.58;;;16.90;99.90;;;;;;4591575;19;20027;-69
2023/10/07 00:29:54;;;;;;;;;;;17.00;99.90;;;;;;4593480;19;20013;-68
2023/10/07 00:31:32;;;;;;;5.32;3.40;;;17.00;99.90;;;;;;4591411;19;19960;-68
2023/10/07 00:33:09;;;;;;;5.85;3.53;;;17.00;99.90;;;;;;4592055;19;20011;-69
2023/10/07 00:34:44;;;;;;;4.72;3.17;;;17.00;99.90;;;;;;4593093;19;20014;-69
2023/10/07 00:38:14;;;;;;;5.65;3.20;;;17.00;99.90;;;;;;4592881;19;20006;-68
2023/10/07 00:39:48;;;;;;;4.38;2.97;;;17.00;99.90;;;;;;4593205;19;20002;-68
2023/10/07 00:41:27;;;;;;;4.28;3.10;;;17.00;99.90;;;;;;4592146;19;20302;-69
2023/10/07 00:43:08;;;;;;;5.10;3.20;;;17.00;99.90;;;;;;4592937;19;20030;-68
2023/10/07 00:44:46;;;;;;;4.85;2.85;;;17.00;99.90;;;;;;4592883;19;20011;-68
2023/10/07 00:46:28;;;;;;;4.93;3.10;;;17.00;99.90;;;;;;4593141;19;20002;-68
2023/10/07 00:48:10;;;;;;;3.78;2.60;;;17.10;99.90;;;;;;4592852;19;20029;-69
2023/10/07 00:49:53;;;;;;;4.25;2.88;;;17.10;99.90;;;;;;4591666;19;20074;-68
2023/10/07 00:51:35;;;;;;;5.65;3.45;;;17.10;99.90;;;;;;4591583;19;20324;-69
2023/10/07 00:53:12;;;;;;;4.60;2.80;;;17.10;99.90;;;;;;4591841;19;20039;-68
2023/10/07 00:54:51;;;;;;;4.15;2.60;;;17.10;99.90;;;;;;4591559;19;19998;-69
2023/10/07 00:56:25;;;;;;;4.88;2.80;;;17.10;99.90;;;;;;4592337;19;20097;-69
2023/10/07 00:59:55;;;;;;;4.72;3.17;;;17.10;99.90;;;;;;4592523;19;20006;-68
2023/10/07 01:01:36;;;;;;;5.35;2.60;;;17.10;99.90;;;;;;4590202;19;20002;-68
2023/10/07 01:03:17;;;;;;;4.50;2.70;;;17.20;99.90;;;;;;4591206;19;20006;-68
2023/10/07 01:04:52;;;;;;;4.20;2.63;;;17.20;99.90;;;;;;4592577;19;20007;-69
2023/10/07 01:06:26;;;;;;;4.35;2.80;;;17.20;99.90;;;;;;4591071;19;19999;-69
2023/10/07 01:08:06;;;;;;;4.82;2.88;;;17.20;99.90;;;;;;4592113;19;20457;-69
2023/10/07 01:09:39;;;;;;;5.35;2.88;;;17.20;99.90;;;;;;4592703;19;20450;-69
2023/10/07 01:11:21;;;;;;;4.30;2.83;;;17.20;99.90;;;;;;4591109;19;20086;-69
2023/10/07 01:13:02;;;;;;;5.85;3.50;;;17.20;99.90;;;;;;4591954;19;20410;-68
2023/10/07 01:14:41;;;;;;;5.05;3.13;;;17.20;99.90;;;;;;4590995;19;20007;-69
2023/10/07 01:16:33;;;;;;;5.43;3.15;;;17.20;99.90;;;;;;4592105;19;20476;-69
2023/10/07 01:18:13;;;;;;;5.80;3.42;;;17.20;99.90;;;;;;4591010;19;20066;-68
2023/10/07 01:19:52;;;;;;;5.05;3.08;;;17.20;99.90;;;;;;4590857;19;20012;-69
2023/10/07 01:21:32;;;;;;;5.80;2.85;;;17.20;99.90;;;;;;4590979;19;20010;-69
2023/10/07 01:23:09;;;;;;;4.60;2.97;;;17.20;99.90;;;;;;4592230;19;20066;-68
2023/10/07 01:24:46;;;;;;;3.88;2.50;;;17.20;99.90;;;;;;4592115;19;19998;-69
2023/10/07 01:26:20;;;;;;;4.05;2.40;;;17.20;99.90;;;;;;4592372;19;20426;-69
2023/10/07 01:27:56;;;;;;;4.07;2.47;;;17.20;99.90;;;;;;4591902;19;20007;-69
2023/10/07 01:29:30;;;;;;;4.95;3.15;;;17.20;99.90;;;;;;4592037;19;20425;-69
2023/10/07 01:31:18;;;;;;;3.80;2.78;;;17.20;99.90;;;;;;4591453;19;20002;-68
2023/10/07 01:34:52;;;;;;;4.70;2.78;;;17.20;99.90;;;;;;4591994;19;20003;-69
2023/10/07 01:36:26;;;;;;;4.72;2.80;;;17.20;99.90;;;;;;4590914;19;20082;-68
2023/10/07 01:38:07;;;;;;;4.82;2.78;;;17.30;99.90;;;;;;4591713;19;20078;-68
2023/10/07 01:39:44;;;;;;;4.40;2.72;;;17.30;99.90;;;;;;4591929;19;20007;-69
2023/10/07 01:41:19;;;;;;;4.30;2.72;;;17.20;99.90;;;;;;4589556;19;20043;-69
2023/10/07 01:42:54;;;;;;;4.13;2.88;;;17.20;99.90;;;;;;4590493;19;20439;-69
2023/10/07 01:44:31;;;;;;;3.97;2.78;;;17.20;99.90;;;;;;4591406;19;19998;-68
2023/10/07 01:46:07;;;;;;;4.75;2.88;;;17.20;99.90;;;;;;4592041;19;20453;-69
2023/10/07 01:47:42;;;;;;;5.75;3.10;;;17.30;99.90;;;;;;4591786;19;20013;-68
2023/10/07 01:49:17;;;;;;;4.82;2.63;;;17.20;99.90;;;;;;4591693;19;20009;-68
2023/10/07 01:50:51;;;;;;;5.53;2.67;;;17.20;99.90;;;;;;4590913;19;20100;-69
2023/10/07 01:52:28;;;;;;;4.32;2.80;;;17.30;99.90;;;;;;4591603;19;20283;-69
2023/10/07 01:54:08;;;;;;;5.25;3.33;;;17.30;99.90;;;;;;4591849;19;20003;-68
2023/10/07 01:55:45;;;;;;;5.13;3.10;;;17.30;99.90;;;;;;4591596;19;20009;-68
2023/10/07 01:57:20;;;;;;;5.65;3.58;;;17.30;99.90;;;;;;4590636;19;20003;-69
2023/10/07 01:58:57;;;;;;;5.65;3.30;;;17.30;99.90;;;;;;4591213;19;19999;-68
2023/10/07 02:00:57;;;;;;;4.95;3.22;;;17.30;99.90;;;;;;4590176;19;20034;-69
2023/10/07 02:02:31;;;;;;;4.43;2.92;;;17.30;99.90;;;;;;4591508;19;20429;-69
2023/10/07 02:04:15;;;;;;;4.43;2.72;;;17.30;99.90;;;;;;4591774;19;20349;-69
2023/10/07 02:05:50;;;;;;;4.78;3.40;;;17.20;99.90;;;;;;4591501;19;20010;-68
2023/10/07 02:07:27;;;;;;;4.25;2.92;;;17.30;99.90;;;;;;4591481;19;20446;-69
2023/10/07 02:09:05;;;;;;;5.03;3.53;;;17.30;99.90;;;;;;4591338;19;20015;-69
2023/10/07 02:10:42;;;;;;;6.00;3.58;;;17.30;99.90;;;;;;4593248;19;20433;-68
2023/10/07 02:12:18;;;;;;;5.57;3.25;;;17.30;99.90;;;;;;4595776;19;20086;-68
2023/10/07 02:13:52;;;;;;;5.57;3.30;;;17.30;99.90;;;;;;4595974;19;20002;-69
2023/10/07 02:15:29;;;;;;;4.75;3.17;;;17.30;99.90;;;;;;4595978;19;20461;-69
2023/10/07 02:17:04;;;;;;;4.70;3.33;;;17.30;99.90;;;;;;4594516;19;20014;-69
2023/10/07 02:18:44;;;;;;;4.65;2.67;;;17.30;99.90;;;;;;4594582;19;20007;-68
2023/10/07 02:20:28;;;;;;;6.25;3.13;;;17.30;99.90;;;;;;4595238;19;20450;-68
2023/10/07 02:22:06;;;;;;;4.13;2.85;;;17.30;99.90;;;;;;4596141;19;20433;-68
2023/10/07 02:23:40;;;;;;;4.18;2.90;;;17.30;99.90;;;;;;4595835;19;20006;-68
2023/10/07 02:25:20;;;;;;;4.30;3.03;;;17.30;99.90;;;;;;4595700;19;20006;-69
2023/10/07 02:27:05;;;;;;;6.18;3.40;;;17.30;99.90;;;;;;4594392;19;20007;-69
2023/10/07 02:28:39;;;;;;;4.57;2.92;;;17.30;99.90;;;;;;4594639;19;20017;-68
2023/10/07 02:30:19;;;;;;;4.50;2.83;;;17.30;99.90;;;;;;4595043;19;20005;-68
2023/10/07 02:32:06;;;;;;;5.40;3.25;;;17.30;99.90;;;;;;4595929;19;20034;-68
2023/10/07 02:33:42;;;;;;;5.72;3.03;;;17.30;99.90;;;;;;4595628;19;20066;-69
2023/10/07 02:35:19;;;;;;;5.65;3.72;;;17.30;99.90;;;;;;4595843;19;20013;-68
2023/10/07 02:37:10;;;;;;;4.95;3.03;;;17.30;99.90;;;;;;4594229;19;20007;-69
2023/10/07 02:38:44;;;;;;;4.90;2.80;;;17.30;99.90;;;;;;4595450;19;20007;-68
2023/10/07 02:40:35;;;;;;;4.82;3.10;;;17.30;99.90;;;;;;4595096;19;19999;-69
2023/10/07 02:42:11;;;;;;;6.57;3.17;;;17.30;99.90;;;;;;4594402;19;20029;-69
2023/10/07 02:43:48;;;;;;;4.90;2.90;;;17.30;99.90;;;;;;4595535;19;20003;-69
2023/10/07 02:45:28;;;;;;;5.15;3.40;;;17.30;99.90;;;;;;4595657;19;20006;-69
2023/10/07 02:47:11;;;;;;;4.78;3.13;;;17.30;99.90;;;;;;4595699;19;20014;-68
2023/10/07 02:48:46;;;;;;;4.57;2.65;;;17.40;99.90;;;;;;4595325;19;20007;-69
2023/10/07 02:50:20;;;;;;;5.55;3.40;;;17.30;99.90;;;;;;4595084;19;20005;-69
2023/10/07 02:51:56;;;;;;;6.35;3.38;;;17.40;99.90;;;;;;4593858;19;20339;-69
2023/10/07 02:53:35;;;;;;;5.47;3.50;;;17.40;99.90;;;;;;4593590;19;20069;-69
2023/10/07 02:55:28;;;;;;;5.85;3.13;;;17.40;99.90;;;;;;4595144;19;20042;-68
2023/10/07 02:57:21;;;;;;;4.53;2.85;;;17.40;99.90;;;;;;4594054;19;20323;-69
2023/10/07 02:59:00;;;;;;;4.90;3.22;;;17.30;99.90;;;;;;4594914;19;19998;-68
2023/10/07 03:00:49;;;;;;;4.43;3.20;;;17.30;99.90;;;;;;4594510;19;20023;-69
2023/10/07 03:02:37;;;;;;;4.88;3.17;;;17.30;99.90;;;;;;4593947;19;20006;-69
2023/10/07 03:04:12;;;;;;;4.65;3.28;;;17.30;99.90;;;;;;4593644;19;20477;-69
2023/10/07 03:05:46;;;;;;;4.03;2.70;;;17.30;99.90;;;;;;4594709;19;20003;-69
2023/10/07 03:07:21;;;;;;;5.32;3.22;;;17.30;99.90;;;;;;4594928;19;20006;-69
2023/10/07 03:09:18;;;;;;;4.95;2.97;;;17.30;99.90;;;;;;4594855;19;20022;-69
2023/10/07 03:11:03;;;;;;;4.18;2.72;;;17.30;99.90;;;;;;4593588;19;20019;-69
2023/10/07 03:12:39;;;;;;;4.90;2.90;;;17.30;99.90;;;;;;4594545;19;20094;-69
2023/10/07 03:14:23;;;;;;;4.45;3.10;;;17.30;99.90;;;;;;4594982;19;20003;-69
2023/10/07 03:17:52;;;;;;;4.72;2.72;;;17.30;99.90;;;;;;4594640;19;20003;-69
2023/10/07 03:19:46;;;;;;;4.15;2.65;;;17.30;99.90;;;;;;4593276;19;20016;-69
2023/10/07 03:21:23;;;;;;;5.13;3.00;;;17.30;99.90;;;;;;4592570;19;20025;-69
2023/10/07 03:23:14;;;;;;;4.00;2.60;;;17.30;99.90;;;;;;4593267;19;20007;-69
2023/10/07 03:24:54;;;;;;;4.50;3.13;;;17.30;99.90;;;;;;4593498;19;20453;-68
2023/10/07 03:26:32;;;;;;;5.85;3.40;;;17.30;99.90;;;;;;4594404;19;20324;-69
2023/10/07 03:28:16;;;;;;;4.63;2.80;;;17.30;99.90;;;;;;4594772;19;20007;-69
2023/10/07 03:30:12;;;;;;;5.57;2.85;;;17.30;99.90;;;;;;4594718;19;20006;-69
2023/10/07 03:31:48;;;;;;;4.43;2.75;;;17.30;99.90;;;;;;4593310;19;20006;-69
2023/10/07 03:33:32;;;;;;;5.35;3.13;;;17.40;99.90;;;;;;4592811;19;20006;-69
2023/10/07 03:35:17;;;;;;;5.05;3.50;;;17.40;99.90;;;;;;4594628;19;20106;-69
2023/10/07 03:38:45;;;;;;;5.30;3.22;;;17.40;99.90;;;;;;4594554;19;20013;-68
2023/10/07 03:40:35;;;;;;;4.50;2.85;;;17.40;99.90;;;;;;4593773;19;20002;-69
2023/10/07 03:42:09;;;;;;;5.18;3.22;;;17.40;99.90;;;;;;4594263;19;20283;-69
2023/10/07 03:43:45;;;;;;;5.40;3.20;;;17.60;99.90;;;;;;4594197;19;20015;-69
2023/10/07 03:45:22;;;;;;;5.10;2.95;;;17.80;99.90;;;;;;4594380;19;20461;-69
2023/10/07 03:46:57;;;;;;;5.25;3.00;;;18.10;99.90;;;;;;4594045;19;20070;-68
2023/10/07 03:48:32;;;;;;;5.47;2.83;;;18.30;99.90;;;;;;4592764;19;20006;-69
2023/10/07 03:50:24;;;;;;;5.10;3.03;;;18.50;99.90;;;;;;4593403;19;20012;-69
2023/10/07 03:52:07;;;;;;;8.77;2.90;;;18.60;99.90;;;;;;4594094;19;19998;-69
2023/10/07 03:53:45;;;;;;;4.57;3.00;;;18.80;99.90;;;;;;4591243;19;20006;-69
2023/10/07 03:55:19;;;;;;;6.43;3.15;;;18.90;99.90;;;;;;4594058;19;20293;-68
2023/10/07 03:56:53;;;;;;;6.65;3.00;;;19.00;99.90;;;;;;4593829;19;20002;-68
2023/10/07 03:58:32;;;;;;;5.13;3.00;;;19.10;99.90;;;;;;4592824;19;20006;-68
2023/10/07 04:00:11;;;;;;;4.53;2.67;;;19.10;99.90;;;;;;4593406;19;20032;-69
2023/10/07 04:01:45;;;;;;;6.32;3.03;;;19.20;99.90;;;;;;4593825;19;20012;-68
2023/10/07 04:03:23;;;;;;;5.80;2.97;;;19.30;99.90;;;;;;4592509;19;20011;-68
2023/10/07 04:05:00;;;;;;;5.35;3.03;;;19.30;99.90;;;;;;4592433;19;20007;-69
2023/10/07 04:06:36;;;;;;;5.95;2.90;;;19.30;99.90;;;;;;4593435;19;20006;-68
2023/10/07 04:08:11;;;;;;;6.28;3.45;;;19.30;99.90;;;;;;4593657;19;20006;-68
2023/10/07 04:09:45;;;;;;;5.88;3.20;;;19.40;99.90;;;;;;4593598;19;20006;-69
2023/10/07 04:11:25;;;;;;;6.65;3.47;;;19.40;99.90;;;;;;4592098;19;20031;-69
2023/10/07 04:13:01;;;;;;;5.78;3.33;;;19.40;99.90;;;;;;4591582;19;20006;-68
2023/10/07 04:14:39;;;;;;;5.80;3.05;;;19.40;99.90;;;;;;4593476;19;20028;-68
2023/10/07 04:16:27;;;;;;;4.15;2.70;;;19.40;99.90;;;;;;4592452;19;20306;-68
2023/10/07 04:18:03;;;;;;;6.78;3.75;;;19.40;99.90;;;;;;4593370;19;20006;-68
2023/10/07 04:19:48;;;;;;;5.07;3.45;;;19.40;99.90;;;;;;4593627;19;19998;-69
2023/10/07 04:21:23;;;;;;;4.75;3.05;;;19.40;99.90;;;;;;4592594;19;20010;-69
2023/10/07 04:23:00;;;;;;;4.72;3.30;;;19.40;99.90;;;;;;4593380;19;20054;-69
2023/10/07 04:24:35;;;;;;;5.25;3.47;;;19.50;99.90;;;;;;4593335;19;20493;-69
2023/10/07 04:26:10;;;;;;;5.88;2.72;;;19.50;99.90;;;;;;4593247;19;20080;-69
2023/10/07 04:27:53;;;;;;;3.97;2.92;;;19.60;99.90;;;;;;4593260;19;20013;-69
2023/10/07 04:29:27;;;;;;;5.90;3.10;;;19.70;99.90;;;;;;4593251;19;20006;-69
2023/10/07 04:31:07;;;;;;;4.93;3.05;;;19.70;99.90;;;;;;4592600;19;20413;-69
2023/10/07 04:32:52;;;;;;;5.10;3.20;;;19.70;99.90;;;;;;4590594;19;20021;-69
2023/10/07 04:34:27;;;;;;;5.60;3.05;;;19.70;99.90;;;;;;4593476;19;20298;-69
2023/10/07 04:36:04;;;;;;;5.30;3.17;;;19.70;99.90;;;;;;4591722;19;20011;-69
2023/10/07 04:37:47;;;;;;;5.80;3.40;;;19.70;99.90;;;;;;4592743;19;20320;-69
2023/10/07 04:39:27;;;;;;;5.22;2.85;;;19.70;99.90;;;;;;4593309;19;20087;-69
2023/10/07 04:41:56;;;;;;;6.13;3.10;;;19.80;99.90;;;;;;4592518;19;20007;-69
2023/10/07 04:43:49;;;;;;;5.97;3.40;;;19.80;99.90;;;;;;4592011;19;20007;-69
2023/10/07 04:46:30;;;;;;;7.20;3.42;;;19.80;99.90;;;;;;4592845;19;20327;-68
2023/10/07 04:51:47;;;;;;;6.07;3.42;;;19.90;99.90;;;;;;4590420;19;20062;-69
2023/10/07 04:53:25;;;;;;;5.55;2.85;;;19.80;99.90;;;;;;4589907;19;20017;-68
2023/10/07 04:54:59;;;;;;;7.35;3.42;;;19.80;99.90;;;;;;4590437;19;20066;-69
2023/10/07 04:56:35;;;;;;;5.13;2.92;;;19.80;99.90;;;;;;4590304;19;20010;-68
2023/10/07 04:58:12;;;;;;;5.30;3.40;;;19.80;99.90;;;;;;4590400;19;20007;-69
2023/10/07 04:59:46;;;;;;;6.60;2.92;;;19.80;99.90;;;;;;4590356;19;20006;-69
2023/10/07 05:01:34;;;;;;;5.20;3.22;;;19.70;99.90;;;;;;4589281;19;20018;-69
2023/10/07 05:03:14;;;;;;;5.38;2.90;;;19.70;99.90;;;;;;4590322;19;20284;-69
2023/10/07 05:04:50;;;;;;;6.65;3.13;;;19.70;99.90;;;;;;4590576;19;20482;-69
2023/10/07 05:06:24;;;;;;;6.03;3.08;;;19.70;99.90;;;;;;4590572;19;20426;-69
2023/10/07 05:08:22;;;;;;;5.15;2.92;;;19.70;99.90;;;;;;4590234;19;20024;-69
2023/10/07 05:09:56;;;;;;;6.65;3.50;;;19.60;99.90;;;;;;4590426;19;20022;-68
2023/10/07 05:11:30;;;;;;;5.00;3.13;;;19.60;99.90;;;;;;4588750;19;20018;-68
2023/10/07 05:13:09;;;;;;;7.40;2.92;;;19.60;99.90;;;;;;4589507;19;20007;-69
2023/10/07 05:14:43;;;;;;;6.18;3.70;;;19.70;99.90;;;;;;4590059;19;20006;-69
2023/10/07 05:16:22;;;;;;;6.00;3.40;;;19.70;99.90;;;;;;4590060;19;20003;-69
2023/10/07 05:18:01;;;;;;;4.57;2.65;;;19.70;99.90;;;;;;4590051;19;20051;-69
2023/10/07 05:19:35;;;;;;;6.50;3.05;;;19.80;99.90;;;;;;4590040;19;20006;-68
2023/10/07 05:21:11;;;;;;;6.57;2.85;;;19.80;99.90;;;;;;4589277;19;20437;-69
2023/10/07 05:22:47;;;;;;;5.20;3.08;;;19.90;99.90;;;;;;4590207;19;20014;-71
2023/10/07 05:24:21;;;;;;;6.03;3.00;;;20.00;99.90;;;;;;4590126;19;20002;-70
2023/10/07 05:25:55;;;;;;;5.43;3.33;;;20.10;99.90;;;;;;4589868;19;19999;-69
2023/10/07 05:27:32;;;;;;;7.35;3.30;;;20.10;99.90;;;;;;4591729;19;20449;-69
2023/10/07 05:29:07;;;;;;;5.78;3.20;;;20.20;99.90;;;;;;4592306;19;20010;-69
2023/10/07 05:30:50;;;;;;;6.55;3.08;;;20.30;99.90;;;;;;4591471;19;20018;-69
2023/10/07 05:32:27;;;;;;;4.97;2.92;;;20.30;99.90;;;;;;4590528;19;20011;-69
2023/10/07 05:34:01;;;;;;;5.30;3.65;;;20.30;99.90;;;;;;4591768;19;20003;-69
2023/10/07 05:35:37;;;;;;;6.00;4.15;;;19.00;99.90;;;;;;4591930;19;20006;-69
2023/10/07 05:37:14;;;;;;;5.68;3.78;;;18.30;99.90;;;;;;4590913;19;20002;-69
2023/10/07 05:38:50;;;;;;;6.40;4.13;;;18.00;99.90;;;;;;4591867;19;20394;-69
2023/10/07 05:40:24;;;;;;;7.30;4.45;;;17.90;99.90;;;;;;4591140;19;20022;-69
2023/10/07 05:41:59;;;;;;;5.57;4.13;;;17.80;99.90;;;;;;4591834;19;20430;-69
2023/10/07 05:43:36;;;;;;;4.90;3.85;;;17.80;99.90;;;;;;4591773;19;20014;-69
2023/10/07 05:45:10;;;;;;;7.15;4.50;;;17.80;99.90;;;;;;4596408;19;20007;-69
2023/10/07 05:46:46;;;;;;;6.00;4.53;;;17.70;99.90;;;;;;4596566;19;20006;-69
2023/10/07 05:48:22;;;;;;;6.63;4.22;;;17.80;99.90;;;;;;4595117;19;20002;-69
2023/10/07 05:49:56;;;;;;;5.57;4.47;;;17.80;99.90;;;;;;4596121;19;20013;-69
2023/10/07 05:51:32;;;;;;;6.45;4.32;;;17.80;99.90;;;;;;4594900;19;20011;-69
2023/10/07 05:53:06;;;;;;;5.15;4.22;;;17.80;99.90;;;;;;4594041;19;20326;-68
2023/10/07 05:54:40;;;;;;;6.80;5.20;;;17.70;99.90;;;;;;4595016;19;20074;-68
2023/10/07 05:56:15;;;;;;;9.45;6.35;;;17.80;99.90;;;;;;4595071;19;20416;-69
2023/10/07 05:57:52;;;;;;;5.82;4.60;;;17.70;99.90;;;;;;4594996;19;20006;-67
2023/10/07 05:59:25;;;;;;;6.53;4.18;;;17.80;99.90;;;;;;4595990;19;20011;-70
2023/10/07 06:01:01;;;;;;;6.03;3.83;;;17.70;99.90;;;;;;4594453;19;20010;-69
2023/10/07 06:02:35;;;;;;;6.65;4.53;;;17.70;99.90;;;;;;4595894;19;20309;-69
2023/10/07 06:04:09;;;;;;;6.20;4.40;;;17.70;99.90;;;;;;4596169;19;20300;-70
2023/10/07 06:05:44;;;;;;;9.35;6.97;;;17.70;99.90;;;;;;4594903;19;20335;-70
2023/10/07 06:07:21;;;;;;;9.20;5.97;;;17.70;99.90;;;;;;4596014;19;20003;-69
2023/10/07 06:08:55;;;;;;;13.15;8.18;;;17.70;99.90;;;;;;4596158;19;20040;-69
2023/10/07 06:10:33;;;;;;;18.88;11.77;;;17.70;99.90;;;;;;4595228;19;20070;-69
2023/10/07 06:12:07;;;;;;;10.38;6.03;;;17.70;99.90;;;;;;4596075;19;20002;-69
2023/10/07 06:13:41;;;;;;;8.82;5.28;;;17.70;99.90;;;;;;4593263;19;20466;-69
2023/10/07 06:15:18;;;;;;;8.43;5.47;;;17.70;99.90;;;;;;4595726;19;20026;-69
2023/10/07 06:16:55;;;;;;;29.48;13.48;;;17.70;99.90;;;;;;4596012;19;20014;-69
2023/10/07 06:18:31;;;;;;;18.70;10.88;;;17.70;99.90;;;;;;4595978;19;20029;-69
2023/10/07 06:20:14;;;;;;;20.70;10.02;;;17.70;99.90;;;;;;4595762;19;20010;-69
2023/10/07 06:21:51;;;;;;;15.35;8.05;;;17.70;99.90;;;;;;4594832;19;20392;-69
2023/10/07 06:23:26;;;;;;;11.88;7.85;;;17.70;99.90;;;;;;4594507;19;20013;-69
2023/10/07 06:25:04;;;;;;;5.25;3.95;;;17.70;99.90;;;;;;4595584;19;20007;-69
2023/10/07 06:26:43;;;;;;;5.22;4.40;;;17.70;99.90;;;;;;4595756;19;20489;-69
2023/10/07 06:30:01;;;;;;;6.53;4.43;;;17.70;99.90;;;;;;4594306;19;20006;-69
2023/10/07 06:31:36;;;;;;;8.45;5.30;;;17.70;99.90;;;;;;4595588;19;20489;-69
2023/10/07 06:33:13;;;;;;;13.48;6.88;;;17.70;99.90;;;;;;4593546;19;20019;-70
2023/10/07 06:34:51;;;;;;;8.43;5.25;;;17.70;99.90;;;;;;4595365;19;20007;-69
2023/10/07 06:36:26;;;;;;;7.60;4.95;;;17.70;99.90;;;;;;4594222;19;20007;-69
2023/10/07 06:37:59;;;;;;;6.18;3.50;;;17.70;99.90;;;;;;4594401;19;20007;-69
2023/10/07 06:39:35;;;;;;;5.65;3.50;;;17.90;99.90;;;;;;4595151;19;20006;-69
2023/10/07 06:41:12;;;;;;;7.50;4.20;;;18.10;99.90;;;;;;4594120;19;20019;-69
2023/10/07 06:42:46;;;;;;;7.38;3.80;;;18.40;99.90;;;;;;4593935;19;20312;-69
2023/10/07 06:44:24;;;;;;;24.98;10.60;;;18.60;99.90;;;;;;4594374;19;20024;-70
2023/10/07 06:46:01;;;;;;;12.45;6.45;;;18.70;99.90;;;;;;4593879;19;20007;-69
2023/10/07 06:47:35;;;;;;;8.55;3.95;;;18.90;99.90;;;;;;4594118;19;20015;-69
2023/10/07 06:49:19;;;;;;;10.98;6.07;;;19.00;99.90;;;;;;4595363;19;20011;-69
2023/10/07 06:50:53;;;;;;;8.05;4.18;;;19.00;99.90;;;;;;4594286;19;20018;-69
2023/10/07 06:52:27;;;;;;;8.35;4.45;;;19.10;99.90;;;;;;4594951;19;19998;-69
2023/10/07 06:54:04;;;;;;;17.20;9.38;;;19.20;99.90;;;;;;4595613;19;20016;-69
2023/10/07 06:55:41;;;;;;;21.90;9.63;;;19.30;99.90;;;;;;4594165;19;20471;-69
2023/10/07 06:57:17;;;;;;;24.42;11.50;;;19.30;99.90;;;;;;4594984;19;20013;-69
2023/10/07 06:58:59;;;;;;;20.92;10.75;;;19.40;99.90;;;;;;4593758;19;20006;-71
2023/10/07 07:00:48;;;;;;;14.95;7.68;;;19.40;99.90;;;;;;4593196;19;20017;-71
2023/10/07 07:02:34;;;;;;;30.05;13.07;;;19.40;99.90;;;;;;4593533;19;20015;-70
2023/10/07 07:04:17;;;;;;;24.58;11.00;;;19.50;99.90;;;;;;4594866;19;20473;-70
2023/10/07 07:05:54;;;;;;;21.30;9.93;;;19.50;99.90;;;;;;4593942;19;20430;-70
2023/10/07 07:07:28;;;;;;;15.60;8.13;;;19.50;99.90;;;;;;4594783;19;20029;-72
2023/10/07 07:09:41;;;;;;;30.13;12.48;;;19.50;99.90;;;;;;4594921;19;20011;-72
2023/10/07 07:11:02;;;;;;;23.63;10.32;;;19.50;99.90;;;;;;4593552;19;20041;-72
2023/10/07 07:12:37;;;;;;;31.88;12.45;;;19.50;99.90;;;;;;4594813;19;20006;-70
2023/10/07 07:14:13;;;;;;;24.85;10.75;;;19.50;99.90;;;;;;4595073;19;20032;-71
2023/10/07 07:16:06;;;;;;;13.30;6.28;;;19.60;99.90;;;;;;4594788;19;20006;-70
2023/10/07 07:17:44;;;;;;;16.30;7.68;;;19.60;99.90;;;;;;4594957;19;20010;-69
2023/10/07 07:19:22;;;;;;;12.95;6.15;;;19.60;99.90;;;;;;4593638;19;20461;-70
2023/10/07 07:21:14;;;;;;;20.90;9.02;;;19.60;99.90;;;;;;4593463;19;20029;-68
2023/10/07 07:22:50;;;;;;;9.77;5.28;;;19.60;99.90;;;;;;4594635;19;20033;-69
2023/10/07 07:24:29;;;;;;;13.73;6.78;;;19.70;99.90;;;;;;4594595;19;20010;-70
2023/10/07 07:27:37;;;;;;;16.20;7.95;;;19.60;99.90;;;;;;4593176;19;19999;-69
2023/10/07 07:29:17;;;;;;;15.15;7.88;;;19.60;99.90;;;;;;4594202;19;20030;-72
2023/10/07 07:30:53;;;;;;;12.57;6.18;;;19.60;99.90;;;;;;4593606;19;20007;-70
2023/10/07 07:32:28;;;;;;;17.58;7.82;;;19.60;99.90;;;;;;4594179;19;20023;-70
2023/10/07 07:34:19;;;;;;;13.63;6.60;;;19.60;99.90;;;;;;4594436;19;20013;-68
2023/10/07 07:35:56;;;;;;;15.23;7.07;;;19.60;99.90;;;;;;4594358;19;20029;-70
2023/10/07 07:37:34;;;;;;;12.52;6.47;;;19.70;99.90;;;;;;4594373;19;20085;-70
2023/10/07 07:39:09;;;;;;;14.13;7.03;;;19.70;99.90;;;;;;4593007;19;20318;-74
2023/10/07 07:40:44;;;;;;;14.35;7.32;;;19.70;99.90;;;;;;4593251;19;20002;-68
2023/10/07 07:42:23;;;;;;;14.32;6.50;;;19.60;99.90;;;;;;4594181;19;20009;-69
2023/10/07 07:44:02;;;;;;;10.82;5.68;;;19.70;99.90;;;;;;4594256;19;20013;-69
2023/10/07 07:45:36;;;;;;;10.70;5.00;;;19.60;99.90;;;;;;4594197;19;20006;-69
2023/10/07 07:47:10;;;;;;;7.50;4.07;;;19.70;99.90;;;;;;4594098;19;20006;-74
2023/10/07 07:48:49;;;;;;;7.47;4.63;;;19.60;99.90;;;;;;4594117;19;20034;-69
2023/10/07 07:50:23;;;;;;;10.95;5.47;;;19.70;99.90;;;;;;4593625;19;20003;-69
2023/10/07 07:51:57;;;;;;;8.45;4.85;;;19.70;99.90;;;;;;4594199;19;20070;-69
2023/10/07 07:53:33;;;;;;;6.93;4.18;;;19.70;99.90;;;;;;4593252;19;20450;-69
2023/10/07 07:55:07;;;;;;;7.40;3.88;;;19.70;99.90;;;;;;4594181;19;20414;-70
2023/10/07 07:56:42;;;;;;;7.07;4.03;;;19.80;99.90;;;;;;4593779;19;20035;-70
2023/10/07 07:58:19;;;;;;;10.02;5.85;;;19.80;99.90;;;;;;4593880;19;20007;-69
2023/10/07 07:59:52;;;;;;;6.82;3.80;;;19.80;99.90;;;;;;4594123;19;20024;-70
2023/10/07 08:01:29;;;;;;;7.47;3.40;;;19.80;99.90;;;;;;4592531;19;20315;-69
2023/10/07 08:03:05;;;;;;;7.82;4.57;;;19.90;99.90;;;;;;4593801;19;20011;-69
2023/10/07 08:04:47;;;;;;;8.32;4.55;;;19.90;99.90;;;;;;4593691;19;20022;-69
2023/10/07 08:06:25;;;;;;;6.57;3.50;;;19.90;99.90;;;;;;4592661;19;20010;-69
2023/10/07 08:08:09;;;;;;;7.93;3.85;;;20.00;99.90;;;;;;4593740;19;20023;-69
2023/10/07 08:09:42;;;;;;;5.13;2.58;;;20.10;99.90;;;;;;4592591;19;20430;-69
2023/10/07 08:11:17;;;;;;;10.80;6.10;;;20.10;99.90;;;;;;4592304;19;20378;-69
2023/10/07 08:12:53;;;;;;;4.97;2.78;;;20.30;99.90;;;;;;4593203;19;20007;-69
2023/10/07 08:14:27;;;;;;;3.75;2.30;;;20.40;99.90;;;;;;4593491;19;20009;-69
2023/10/07 08:16:06;;;;;;;3.92;2.10;;;20.50;99.90;;;;;;4593550;19;19998;-72
2023/10/07 08:17:45;;;;;;;4.93;2.70;;;20.50;99.90;;;;;;4593582;19;20310;-69
2023/10/07 08:19:24;;;;;;;5.57;3.22;;;20.60;99.90;;;;;;4592148;19;20544;-69
2023/10/07 08:21:09;;;;;;;4.45;2.65;;;20.70;99.90;;;;;;4591533;19;20010;-70
2023/10/07 08:22:51;;;;;;;7.03;3.35;;;20.70;99.90;;;;;;4592006;19;20015;-69
2023/10/07 08:24:31;;;;;;;4.78;2.47;;;20.60;99.90;;;;;;4593091;19;20298;-70
2023/10/07 08:26:10;;;;;;;5.03;3.08;;;20.60;99.90;;;;;;4593424;19;20437;-69
2023/10/07 08:27:49;;;;;;;5.13;3.05;;;20.80;99.90;;;;;;4593359;19;20006;-69
2023/10/07 08:29:34;;;;;;;8.00;5.50;;;21.00;99.90;;;;;;4593371;19;20325;-71
2023/10/07 08:31:14;;;;;;;6.72;4.18;;;21.20;99.90;;;;;;4592294;19;20010;-70
2023/10/07 08:32:50;;;;;;;;;;;21.40;99.90;;;;;;4594066;19;20006;-69
2023/10/07 08:34:31;;;;;;;15.13;6.50;;;21.50;99.90;;;;;;4593042;19;19915;-69
2023/10/07 08:36:07;;;;;;;6.00;2.63;;;21.60;99.90;;;;;;4593096;19;20007;-69
2023/10/07 08:37:47;;;;;;;3.58;1.90;;;21.50;99.90;;;;;;4593169;19;20069;-69
2023/10/07 08:39:27;;;;;;;4.20;2.50;;;21.50;99.90;;;;;;4591754;19;19999;-69
2023/10/07 08:41:16;;;;;;;4.28;1.92;;;21.50;99.90;;;;;;4590908;19;20028;-69
2023/10/07 08:42:58;;;;;;;5.22;2.97;;;21.40;99.90;;;;;;4591677;19;20361;-69
2023/10/07 08:44:32;;;;;;;4.50;2.20;;;21.20;99.90;;;;;;4591889;19;20088;-70
2023/10/07 08:46:09;;;;;;;5.18;2.72;;;21.00;99.90;;;;;;4591575;19;20007;-70
2023/10/07 08:47:50;;;;;;;4.43;2.78;;;20.90;99.90;;;;;;4591777;19;20023;-70
2023/10/07 08:49:25;;;;;;;5.75;2.90;;;20.80;99.90;;;;;;4591885;19;20006;-70
2023/10/07 08:50:59;;;;;;;6.55;3.05;;;20.70;99.90;;;;;;4592050;19;20109;-69
2023/10/07 08:52:36;;;;;;;5.40;2.63;;;20.60;99.90;;;;;;4591388;19;20020;-69
2023/10/07 08:54:17;;;;;;;5.07;2.47;;;20.60;99.90;;;;;;4591851;19;20021;-69
2023/10/07 08:55:57;;;;;;;6.30;2.60;;;20.60;99.90;;;;;;4591705;19;20006;-69
2023/10/07 08:57:34;;;;;;;3.72;2.05;;;20.50;99.90;;;;;;4591739;19;20434;-70
2023/10/07 08:59:12;;;;;;;5.28;2.22;;;20.50;99.90;;;;;;4592719;19;20007;-69
2023/10/07 09:00:50;;;;;;;3.25;2.00;;;20.40;99.90;;;;;;4590640;19;20409;-70